sensor_id;sensor_type;location;lat;lon;timestamp;P1;durP1;ratioP1;P2;durP2;ratioP2
63534;SDS011;55128;50.230;18.944;2022-07-29T00:01:55;9.40;;;3.97;;
63534;SDS011;55128;50.230;18.944;2022-07-29T00:06:56;8.82;;;3.97;;
63534;SDS011;55128;50.230;18.944;2022-07-29T00:11:57;9.45;;;4.03;;
63534;SDS011;55128;50.230;18.944;2022-07-29T00:17:00;5.97;;;4.10;;
63534;SDS011;55128;50.230;18.944;2022-07-29T00:22:00;9.35;;;3.95;;
63534;SDS011;55128;50.230;18.944;2022-07-29T00:27:01;6.70;;;4.30;;
63534;SDS011;55128;50.230;18.944;2022-07-29T00:32:02;9.07;;;4.43;;
63534;SDS011;55128;50.230;18.944;2022-07-29T00:37:03;5.30;;;3.75;;
63534;SDS011;55128;50.230;18.944;2022-07-29T00:42:04;8.55;;;4.07;;
63534;SDS011;55128;50.230;18.944;2022-07-29T00:47:05;8.63;;;3.72;;
63534;SDS011;55128;50.230;18.944;2022-07-29T00:52:06;9.63;;;3.90;;
63534;SDS011;55128;50.230;18.944;2022-07-29T00:57:08;6.05;;;3.70;;
63534;SDS011;55128;50.230;18.944;2022-07-29T01:02:09;6.60;;;3.45;;
63534;SDS011;55128;50.230;18.944;2022-07-29T01:07:09;5.25;;;3.20;;
63534;SDS011;55128;50.230;18.944;2022-07-29T01:12:11;5.68;;;2.97;;
63534;SDS011;55128;50.230;18.944;2022-07-29T01:17:18;6.10;;;3.35;;
63534;SDS011;55128;50.230;18.944;2022-07-29T01:33:10;6.85;;;2.97;;
63534;SDS011;55128;50.230;18.944;2022-07-29T01:38:33;5.75;;;2.60;;
63534;SDS011;55128;50.230;18.944;2022-07-29T01:43:44;4.43;;;2.38;;
63534;SDS011;55128;50.230;18.944;2022-07-29T01:49:08;6.20;;;2.53;;
63534;SDS011;55128;50.230;18.944;2022-07-29T01:54:18;5.78;;;2.40;;
63534;SDS011;55128;50.230;18.944;2022-07-29T01:59:26;6.22;;;2.42;;
63534;SDS011;55128;50.230;18.944;2022-07-29T02:04:27;4.93;;;2.08;;
63534;SDS011;55128;50.230;18.944;2022-07-29T02:14:35;4.57;;;2.22;;
63534;SDS011;55128;50.230;18.944;2022-07-29T02:19:38;6.63;;;2.40;;
63534;SDS011;55128;50.230;18.944;2022-07-29T02:24:42;3.10;;;1.83;;
63534;SDS011;55128;50.230;18.944;2022-07-29T02:29:45;2.80;;;1.65;;
63534;SDS011;55128;50.230;18.944;2022-07-29T02:34:47;3.42;;;2.00;;
63534;SDS011;55128;50.230;18.944;2022-07-29T02:39:51;4.95;;;2.00;;
63534;SDS011;55128;50.230;18.944;2022-07-29T02:44:53;4.50;;;1.90;;
63534;SDS011;55128;50.230;18.944;2022-07-29T02:49:56;3.08;;;1.83;;
63534;SDS011;55128;50.230;18.944;2022-07-29T03:00:23;4.72;;;2.00;;
63534;SDS011;55128;50.230;18.944;2022-07-29T03:05:28;3.13;;;1.55;;
63534;SDS011;55128;50.230;18.944;2022-07-29T03:10:30;4.55;;;1.90;;
63534;SDS011;55128;50.230;18.944;2022-07-29T03:15:31;4.20;;;1.70;;
63534;SDS011;55128;50.230;18.944;2022-07-29T03:20:32;2.95;;;1.70;;
63534;SDS011;55128;50.230;18.944;2022-07-29T03:25:33;10.60;;;1.95;;
63534;SDS011;55128;50.230;18.944;2022-07-29T03:30:34;5.53;;;2.00;;
63534;SDS011;55128;50.230;18.944;2022-07-29T03:35:34;6.05;;;2.00;;
63534;SDS011;55128;50.230;18.944;2022-07-29T03:40:40;5.63;;;1.75;;
63534;SDS011;55128;50.230;18.944;2022-07-29T03:45:47;3.80;;;1.73;;
63534;SDS011;55128;50.230;18.944;2022-07-29T03:50:51;5.82;;;2.00;;
63534;SDS011;55128;50.230;18.944;2022-07-29T03:55:53;4.38;;;2.42;;
63534;SDS011;55128;50.230;18.944;2022-07-29T04:00:58;6.72;;;2.28;;
63534;SDS011;55128;50.230;18.944;2022-07-29T04:06:03;4.75;;;2.00;;
63534;SDS011;55128;50.230;18.944;2022-07-29T04:11:07;5.03;;;2.08;;
63534;SDS011;55128;50.230;18.944;2022-07-29T04:16:08;4.03;;;2.00;;
63534;SDS011;55128;50.230;18.944;2022-07-29T04:21:09;5.57;;;2.22;;
63534;SDS011;55128;50.230;18.944;2022-07-29T04:26:09;5.07;;;1.80;;
63534;SDS011;55128;50.230;18.944;2022-07-29T04:31:11;4.03;;;2.00;;
63534;SDS011;55128;50.230;18.944;2022-07-29T04:36:12;7.25;;;2.10;;
63534;SDS011;55128;50.230;18.944;2022-07-29T04:41:13;5.07;;;2.10;;
63534;SDS011;55128;50.230;18.944;2022-07-29T04:46:14;3.60;;;1.77;;
63534;SDS011;55128;50.230;18.944;2022-07-29T04:51:15;3.30;;;1.80;;
63534;SDS011;55128;50.230;18.944;2022-07-29T04:56:15;5.75;;;2.33;;
63534;SDS011;55128;50.230;18.944;2022-07-29T05:01:16;7.22;;;2.25;;
63534;SDS011;55128;50.230;18.944;2022-07-29T05:06:17;5.28;;;2.25;;
63534;SDS011;55128;50.230;18.944;2022-07-29T05:11:17;6.90;;;2.10;;
63534;SDS011;55128;50.230;18.944;2022-07-29T05:16:18;6.18;;;1.85;;
63534;SDS011;55128;50.230;18.944;2022-07-29T05:21:19;4.68;;;1.98;;
63534;SDS011;55128;50.230;18.944;2022-07-29T05:26:20;5.32;;;2.22;;
63534;SDS011;55128;50.230;18.944;2022-07-29T05:31:20;7.82;;;2.10;;
63534;SDS011;55128;50.230;18.944;2022-07-29T05:36:21;3.90;;;2.17;;
63534;SDS011;55128;50.230;18.944;2022-07-29T05:41:21;4.90;;;2.00;;
63534;SDS011;55128;50.230;18.944;2022-07-29T05:46:22;8.40;;;2.20;;
63534;SDS011;55128;50.230;18.944;2022-07-29T05:51:23;6.90;;;2.28;;
63534;SDS011;55128;50.230;18.944;2022-07-29T05:56:24;4.32;;;2.05;;
63534;SDS011;55128;50.230;18.944;2022-07-29T06:01:24;8.63;;;2.20;;
63534;SDS011;55128;50.230;18.944;2022-07-29T06:06:26;4.90;;;2.00;;
63534;SDS011;55128;50.230;18.944;2022-07-29T06:11:26;7.68;;;2.30;;
63534;SDS011;55128;50.230;18.944;2022-07-29T06:16:27;5.10;;;2.15;;
63534;SDS011;55128;50.230;18.944;2022-07-29T06:21:28;5.10;;;2.42;;
63534;SDS011;55128;50.230;18.944;2022-07-29T06:26:29;6.15;;;2.50;;
63534;SDS011;55128;50.230;18.944;2022-07-29T06:31:32;3.63;;;2.10;;
63534;SDS011;55128;50.230;18.944;2022-07-29T06:36:36;6.57;;;2.60;;
63534;SDS011;55128;50.230;18.944;2022-07-29T07:07:52;5.28;;;2.20;;
63534;SDS011;55128;50.230;18.944;2022-07-29T07:12:54;4.03;;;2.30;;
63534;SDS011;55128;50.230;18.944;2022-07-29T07:38:58;6.53;;;2.40;;
63534;SDS011;55128;50.230;18.944;2022-07-29T07:43:58;4.20;;;2.20;;
63534;SDS011;55128;50.230;18.944;2022-07-29T07:49:08;5.20;;;2.13;;
63534;SDS011;55128;50.230;18.944;2022-07-29T08:06:26;6.47;;;2.00;;
63534;SDS011;55128;50.230;18.944;2022-07-29T08:11:27;3.30;;;2.10;;
63534;SDS011;55128;50.230;18.944;2022-07-29T08:16:27;9.90;;;2.23;;
63534;SDS011;55128;50.230;18.944;2022-07-29T08:21:28;6.53;;;2.67;;
63534;SDS011;55128;50.230;18.944;2022-07-29T08:26:29;4.10;;;2.33;;
63534;SDS011;55128;50.230;18.944;2022-07-29T08:31:29;5.63;;;2.43;;
63534;SDS011;55128;50.230;18.944;2022-07-29T08:36:32;5.15;;;2.40;;
63534;SDS011;55128;50.230;18.944;2022-07-29T08:41:33;3.45;;;2.17;;
63534;SDS011;55128;50.230;18.944;2022-07-29T08:46:37;6.97;;;2.25;;
63534;SDS011;55128;50.230;18.944;2022-07-29T08:52:31;4.05;;;2.17;;
63534;SDS011;55128;50.230;18.944;2022-07-29T08:57:38;5.65;;;2.50;;
63534;SDS011;55128;50.230;18.944;2022-07-29T09:02:45;5.65;;;2.50;;
63534;SDS011;55128;50.230;18.944;2022-07-29T09:07:54;5.00;;;2.53;;
63534;SDS011;55128;50.230;18.944;2022-07-29T09:12:58;3.38;;;2.45;;
63534;SDS011;55128;50.230;18.944;2022-07-29T11:10:29;5.85;;;2.80;;
63534;SDS011;55128;50.230;18.944;2022-07-29T11:15:51;4.93;;;2.60;;
63534;SDS011;55128;50.230;18.944;2022-07-29T11:20:54;4.85;;;2.78;;
63534;SDS011;55128;50.230;18.944;2022-07-29T11:36:20;6.13;;;3.08;;
63534;SDS011;55128;50.230;18.944;2022-07-29T11:41:24;5.70;;;2.67;;
63534;SDS011;55128;50.230;18.944;2022-07-29T11:46:49;3.92;;;2.55;;
63534;SDS011;55128;50.230;18.944;2022-07-29T11:56:53;4.10;;;2.45;;
63534;SDS011;55128;50.230;18.944;2022-07-29T12:02:06;6.40;;;2.70;;
63534;SDS011;55128;50.230;18.944;2022-07-29T12:07:47;4.40;;;3.05;;
63534;SDS011;55128;50.230;18.944;2022-07-29T12:17:58;5.30;;;2.78;;
63534;SDS011;55128;50.230;18.944;2022-07-29T12:23:19;5.53;;;2.80;;
63534;SDS011;55128;50.230;18.944;2022-07-29T12:28:19;5.25;;;2.83;;
63534;SDS011;55128;50.230;18.944;2022-07-29T12:33:22;7.03;;;3.03;;
63534;SDS011;55128;50.230;18.944;2022-07-29T12:38:31;4.15;;;2.88;;
63534;SDS011;55128;50.230;18.944;2022-07-29T12:43:37;5.22;;;2.75;;
63534;SDS011;55128;50.230;18.944;2022-07-29T12:48:52;4.70;;;2.70;;
63534;SDS011;55128;50.230;18.944;2022-07-29T13:05:15;3.60;;;2.47;;
63534;SDS011;55128;50.230;18.944;2022-07-29T13:10:17;7.38;;;2.92;;
63534;SDS011;55128;50.230;18.944;2022-07-29T13:15:19;5.15;;;2.53;;
63534;SDS011;55128;50.230;18.944;2022-07-29T13:20:28;4.97;;;2.35;;
63534;SDS011;55128;50.230;18.944;2022-07-29T13:25:46;4.50;;;2.55;;
63534;SDS011;55128;50.230;18.944;2022-07-29T13:30:47;3.83;;;3.03;;
63534;SDS011;55128;50.230;18.944;2022-07-29T13:46:26;6.07;;;3.35;;
63534;SDS011;55128;50.230;18.944;2022-07-29T13:51:51;8.48;;;2.70;;
63534;SDS011;55128;50.230;18.944;2022-07-29T13:56:55;7.13;;;3.33;;
63534;SDS011;55128;50.230;18.944;2022-07-29T14:01:55;9.32;;;3.25;;
63534;SDS011;55128;50.230;18.944;2022-07-29T14:07:35;4.25;;;2.85;;
63534;SDS011;55128;50.230;18.944;2022-07-29T14:12:41;6.55;;;3.03;;
63534;SDS011;55128;50.230;18.944;2022-07-29T14:17:47;6.78;;;3.03;;
63534;SDS011;55128;50.230;18.944;2022-07-29T14:23:09;4.88;;;2.55;;
63534;SDS011;55128;50.230;18.944;2022-07-29T14:28:10;3.90;;;3.10;;
63534;SDS011;55128;50.230;18.944;2022-07-29T14:33:11;5.75;;;2.92;;
63534;SDS011;55128;50.230;18.944;2022-07-29T14:38:14;7.60;;;3.20;;
63534;SDS011;55128;50.230;18.944;2022-07-29T14:43:16;3.60;;;2.37;;
63534;SDS011;55128;50.230;18.944;2022-07-29T14:48:20;5.05;;;3.10;;
63534;SDS011;55128;50.230;18.944;2022-07-29T14:53:26;5.90;;;2.83;;
63534;SDS011;55128;50.230;18.944;2022-07-29T14:58:37;4.32;;;3.17;;
63534;SDS011;55128;50.230;18.944;2022-07-29T15:03:37;3.05;;;2.75;;
63534;SDS011;55128;50.230;18.944;2022-07-29T15:08:40;7.47;;;3.13;;
63534;SDS011;55128;50.230;18.944;2022-07-29T15:13:51;4.37;;;3.30;;
63534;SDS011;55128;50.230;18.944;2022-07-29T15:18:52;11.35;;;3.08;;
63534;SDS011;55128;50.230;18.944;2022-07-29T15:23:52;3.97;;;2.83;;
63534;SDS011;55128;50.230;18.944;2022-07-29T15:29:04;6.10;;;2.67;;
63534;SDS011;55128;50.230;18.944;2022-07-29T15:34:10;8.60;;;3.05;;
63534;SDS011;55128;50.230;18.944;2022-07-29T15:39:15;5.25;;;3.00;;
63534;SDS011;55128;50.230;18.944;2022-07-29T15:54:48;6.32;;;3.13;;
63534;SDS011;55128;50.230;18.944;2022-07-29T15:59:57;7.07;;;3.20;;
63534;SDS011;55128;50.230;18.944;2022-07-29T16:05:04;5.18;;;2.80;;
63534;SDS011;55128;50.230;18.944;2022-07-29T16:10:09;3.28;;;2.75;;
63534;SDS011;55128;50.230;18.944;2022-07-29T16:20:25;5.65;;;3.25;;
63534;SDS011;55128;50.230;18.944;2022-07-29T16:26:46;4.22;;;2.83;;
63534;SDS011;55128;50.230;18.944;2022-07-29T16:31:47;7.15;;;3.50;;
63534;SDS011;55128;50.230;18.944;2022-07-29T16:36:47;4.75;;;3.40;;
63534;SDS011;55128;50.230;18.944;2022-07-29T16:41:48;4.85;;;4.03;;
63534;SDS011;55128;50.230;18.944;2022-07-29T16:46:48;7.22;;;4.30;;
63534;SDS011;55128;50.230;18.944;2022-07-29T16:51:49;5.35;;;3.75;;
63534;SDS011;55128;50.230;18.944;2022-07-29T16:56:50;7.50;;;4.20;;
63534;SDS011;55128;50.230;18.944;2022-07-29T17:01:50;4.60;;;3.90;;
63534;SDS011;55128;50.230;18.944;2022-07-29T17:06:51;5.38;;;4.03;;
63534;SDS011;55128;50.230;18.944;2022-07-29T17:11:52;6.50;;;4.68;;
63534;SDS011;55128;50.230;18.944;2022-07-29T17:16:53;6.05;;;4.25;;
63534;SDS011;55128;50.230;18.944;2022-07-29T17:21:55;7.10;;;4.67;;
63534;SDS011;55128;50.230;18.944;2022-07-29T17:26:56;6.10;;;4.57;;
63534;SDS011;55128;50.230;18.944;2022-07-29T17:31:56;7.70;;;4.80;;
63534;SDS011;55128;50.230;18.944;2022-07-29T17:36:58;5.30;;;4.75;;
63534;SDS011;55128;50.230;18.944;2022-07-29T17:41:59;7.43;;;5.05;;
63534;SDS011;55128;50.230;18.944;2022-07-29T17:46:59;5.38;;;4.70;;
63534;SDS011;55128;50.230;18.944;2022-07-29T17:52:00;9.95;;;5.25;;
63534;SDS011;55128;50.230;18.944;2022-07-29T17:57:01;6.70;;;5.90;;
63534;SDS011;55128;50.230;18.944;2022-07-29T18:02:01;6.47;;;5.88;;
63534;SDS011;55128;50.230;18.944;2022-07-29T18:07:02;7.78;;;5.88;;
63534;SDS011;55128;50.230;18.944;2022-07-29T18:12:03;7.97;;;5.90;;
63534;SDS011;55128;50.230;18.944;2022-07-29T18:17:03;8.15;;;6.03;;
63534;SDS011;55128;50.230;18.944;2022-07-29T18:22:04;7.10;;;6.32;;
63534;SDS011;55128;50.230;18.944;2022-07-29T18:27:06;8.18;;;6.40;;
63534;SDS011;55128;50.230;18.944;2022-07-29T18:32:07;10.73;;;6.70;;
63534;SDS011;55128;50.230;18.944;2022-07-29T18:37:07;11.70;;;7.47;;
63534;SDS011;55128;50.230;18.944;2022-07-29T18:42:08;7.68;;;6.82;;
63534;SDS011;55128;50.230;18.944;2022-07-29T18:47:09;9.52;;;7.70;;
63534;SDS011;55128;50.230;18.944;2022-07-29T18:52:09;10.50;;;8.68;;
63534;SDS011;55128;50.230;18.944;2022-07-29T18:57:11;9.45;;;8.55;;
63534;SDS011;55128;50.230;18.944;2022-07-29T19:02:11;9.82;;;7.53;;
63534;SDS011;55128;50.230;18.944;2022-07-29T19:07:12;8.80;;;7.20;;
63534;SDS011;55128;50.230;18.944;2022-07-29T19:12:13;10.02;;;7.53;;
63534;SDS011;55128;50.230;18.944;2022-07-29T19:17:13;8.55;;;7.60;;
63534;SDS011;55128;50.230;18.944;2022-07-29T19:22:14;10.02;;;7.97;;
63534;SDS011;55128;50.230;18.944;2022-07-29T19:27:15;8.98;;;7.72;;
63534;SDS011;55128;50.230;18.944;2022-07-29T19:32:16;8.40;;;7.60;;
63534;SDS011;55128;50.230;18.944;2022-07-29T19:37:17;8.30;;;7.45;;
63534;SDS011;55128;50.230;18.944;2022-07-29T19:42:17;8.70;;;7.78;;
63534;SDS011;55128;50.230;18.944;2022-07-29T19:47:18;9.70;;;8.57;;
63534;SDS011;55128;50.230;18.944;2022-07-29T19:52:18;9.70;;;8.00;;
63534;SDS011;55128;50.230;18.944;2022-07-29T19:57:19;8.77;;;8.00;;
63534;SDS011;55128;50.230;18.944;2022-07-29T20:02:19;8.93;;;8.02;;
63534;SDS011;55128;50.230;18.944;2022-07-29T20:07:20;8.95;;;8.10;;
63534;SDS011;55128;50.230;18.944;2022-07-29T20:12:21;9.45;;;8.52;;
63534;SDS011;55128;50.230;18.944;2022-07-29T20:17:22;10.57;;;9.50;;
63534;SDS011;55128;50.230;18.944;2022-07-29T20:22:23;10.35;;;9.32;;
63534;SDS011;55128;50.230;18.944;2022-07-29T20:27:24;11.93;;;9.75;;
63534;SDS011;55128;50.230;18.944;2022-07-29T20:32:24;14.10;;;11.00;;
63534;SDS011;55128;50.230;18.944;2022-07-29T20:37:25;15.48;;;11.02;;
63534;SDS011;55128;50.230;18.944;2022-07-29T20:42:26;14.98;;;11.70;;
63534;SDS011;55128;50.230;18.944;2022-07-29T20:47:28;15.40;;;10.82;;
63534;SDS011;55128;50.230;18.944;2022-07-29T20:52:29;12.13;;;9.95;;
63534;SDS011;55128;50.230;18.944;2022-07-29T20:57:29;11.18;;;9.45;;
63534;SDS011;55128;50.230;18.944;2022-07-29T21:02:30;14.07;;;11.02;;
63534;SDS011;55128;50.230;18.944;2022-07-29T21:07:49;12.75;;;9.73;;
63534;SDS011;55128;50.230;18.944;2022-07-29T21:13:00;10.38;;;8.70;;
63534;SDS011;55128;50.230;18.944;2022-07-29T21:18:00;9.82;;;7.55;;
63534;SDS011;55128;50.230;18.944;2022-07-29T21:23:05;8.40;;;6.80;;
63534;SDS011;55128;50.230;18.944;2022-07-29T21:28:06;7.53;;;6.60;;
63534;SDS011;55128;50.230;18.944;2022-07-29T21:33:31;8.85;;;6.47;;
63534;SDS011;55128;50.230;18.944;2022-07-29T21:38:38;8.98;;;5.85;;
63534;SDS011;55128;50.230;18.944;2022-07-29T21:43:39;8.82;;;6.05;;
63534;SDS011;55128;50.230;18.944;2022-07-29T21:48:41;8.30;;;5.32;;
63534;SDS011;55128;50.230;18.944;2022-07-29T21:53:41;7.63;;;5.88;;
63534;SDS011;55128;50.230;18.944;2022-07-29T21:58:42;6.90;;;6.22;;
63534;SDS011;55128;50.230;18.944;2022-07-29T22:15:11;7.95;;;7.15;;
63534;SDS011;55128;50.230;18.944;2022-07-29T22:20:12;9.25;;;8.27;;
63534;SDS011;55128;50.230;18.944;2022-07-29T22:25:14;8.85;;;7.93;;
63534;SDS011;55128;50.230;18.944;2022-07-29T22:30:24;8.93;;;8.05;;
63534;SDS011;55128;50.230;18.944;2022-07-29T22:35:24;8.48;;;7.60;;
63534;SDS011;55128;50.230;18.944;2022-07-29T22:40:25;8.65;;;7.25;;
63534;SDS011;55128;50.230;18.944;2022-07-29T22:45:26;8.55;;;6.97;;
63534;SDS011;55128;50.230;18.944;2022-07-29T22:50:26;7.82;;;6.93;;
63534;SDS011;55128;50.230;18.944;2022-07-29T22:55:27;8.43;;;6.80;;
63534;SDS011;55128;50.230;18.944;2022-07-29T23:00:28;7.50;;;6.43;;
63534;SDS011;55128;50.230;18.944;2022-07-29T23:05:28;8.40;;;7.50;;
63534;SDS011;55128;50.230;18.944;2022-07-29T23:10:29;7.78;;;6.15;;
63534;SDS011;55128;50.230;18.944;2022-07-29T23:15:30;6.78;;;6.18;;
63534;SDS011;55128;50.230;18.944;2022-07-29T23:20:31;7.43;;;6.57;;
63534;SDS011;55128;50.230;18.944;2022-07-29T23:25:31;9.20;;;7.07;;
63534;SDS011;55128;50.230;18.944;2022-07-29T23:30:32;7.03;;;5.50;;
63534;SDS011;55128;50.230;18.944;2022-07-29T23:35:33;6.30;;;5.25;;
63534;SDS011;55128;50.230;18.944;2022-07-29T23:40:33;5.25;;;4.50;;
63534;SDS011;55128;50.230;18.944;2022-07-29T23:45:34;6.05;;;5.18;;
63534;SDS011;55128;50.230;18.944;2022-07-29T23:50:35;6.70;;;6.00;;
63534;SDS011;55128;50.230;18.944;2022-07-29T23:55:35;6.68;;;6.05;;
